createdAt,value
2019-05-19T00:00:42.827Z,22.57
2019-05-19T00:03:19.231Z,21.63
2019-05-19T00:05:56.705Z,21.00
2019-05-19T00:08:41.825Z,20.80
2019-05-19T00:11:18.044Z,21.87
2019-05-19T00:13:57.197Z,21.67
2019-05-19T00:16:33.585Z,22.70
2019-05-19T00:19:25.877Z,22.90
2019-05-19T00:21:54.029Z,22.30
2019-05-19T00:24:35.816Z,21.10
2019-05-19T00:27:12.257Z,21.70
2019-05-19T00:29:48.538Z,23.30
2019-05-19T00:32:37.642Z,22.13
2019-05-19T00:35:17.329Z,19.90
2019-05-19T00:37:53.669Z,18.97
2019-05-19T00:40:30.216Z,20.43
2019-05-19T00:43:06.650Z,20.17
2019-05-19T00:45:43.195Z,20.10
2019-05-19T00:48:20.988Z,17.60
2019-05-19T00:50:57.213Z,18.57
2019-05-19T00:53:33.684Z,20.17
2019-05-19T00:56:10.061Z,18.90
2019-05-19T00:58:47.331Z,19.23
2019-05-19T01:01:23.812Z,18.03
2019-05-19T01:04:00.079Z,18.23
2019-05-19T01:06:39.176Z,17.03
2019-05-19T01:09:18.398Z,18.30
2019-05-19T01:11:56.185Z,19.97
2019-05-19T01:14:32.932Z,19.57
2019-05-19T01:17:09.256Z,20.00
2019-05-19T01:19:56.068Z,17.80
2019-05-19T01:22:24.311Z,17.93
2019-05-19T01:25:00.609Z,17.60
2019-05-19T01:27:37.212Z,17.57
2019-05-19T01:30:14.079Z,16.97
2019-05-19T01:32:51.945Z,17.47
2019-05-19T01:35:28.145Z,17.50
2019-05-19T01:38:07.618Z,18.50
2019-05-19T01:40:45.517Z,17.67
2019-05-19T01:43:21.878Z,18.50
2019-05-19T01:45:58.158Z,18.77
2019-05-19T01:48:34.511Z,18.60
2019-05-19T01:51:10.891Z,18.70
2019-05-19T01:53:47.382Z,18.03
2019-05-19T01:56:26.423Z,19.53
2019-05-19T01:59:02.859Z,18.60
2019-05-19T02:01:39.137Z,18.47
2019-05-19T02:04:16.824Z,18.90
2019-05-19T02:06:54.789Z,18.03
2019-05-19T02:09:32.603Z,18.77
2019-05-19T02:12:08.933Z,18.67
2019-05-19T02:14:45.321Z,19.57
2019-05-19T02:17:21.716Z,19.33
2019-05-19T02:19:58.173Z,20.60
2019-05-19T02:22:37.351Z,18.83
2019-05-19T02:25:13.807Z,19.53
2019-05-19T02:27:56.291Z,19.13
2019-05-19T02:30:34.365Z,18.63
2019-05-19T02:33:10.743Z,20.27
2019-05-19T02:35:47.244Z,18.60
2019-05-19T02:38:26.030Z,20.17
2019-05-19T02:41:04.920Z,19.80
2019-05-19T02:43:42.377Z,20.20
2019-05-19T02:46:18.997Z,20.07
2019-05-19T02:48:56.648Z,21.53
2019-05-19T02:51:34.775Z,23.53
2019-05-19T02:54:12.048Z,22.40
2019-05-19T02:56:49.548Z,22.17
2019-05-19T02:59:26.190Z,22.27
2019-05-19T03:02:15.147Z,22.27
2019-05-19T03:04:51.423Z,23.77
2019-05-19T03:07:27.649Z,22.27
2019-05-19T03:10:05.114Z,23.50
2019-05-19T03:12:41.376Z,23.10
2019-05-19T03:15:17.627Z,22.30
2019-05-19T03:17:54.087Z,22.90
2019-05-19T03:20:30.334Z,23.70
2019-05-19T03:23:06.600Z,24.13
2019-05-19T03:25:44.174Z,24.77
2019-05-19T03:28:20.697Z,25.93
2019-05-19T03:31:01.354Z,25.27
2019-05-19T03:33:47.950Z,26.30
2019-05-19T03:36:24.257Z,26.90
2019-05-19T03:39:00.531Z,26.93
2019-05-19T03:41:36.790Z,29.20
2019-05-19T03:44:13.026Z,28.70
2019-05-19T03:46:49.297Z,29.10
2019-05-19T03:49:25.538Z,28.23
2019-05-19T03:52:01.872Z,28.70
2019-05-19T03:54:38.199Z,28.37
2019-05-19T03:57:14.425Z,29.50
2019-05-19T03:59:50.694Z,28.10
2019-05-19T04:02:26.966Z,26.90
2019-05-19T04:05:03.938Z,26.47
2019-05-19T04:07:40.196Z,27.40
2019-05-19T04:10:16.356Z,25.97
2019-05-19T04:12:52.538Z,27.40
2019-05-19T04:15:28.685Z,27.70
2019-05-19T04:18:04.944Z,28.00
2019-05-19T04:20:41.167Z,26.23
2019-05-19T04:23:17.541Z,25.27
2019-05-19T04:25:53.837Z,24.23
2019-05-19T04:28:31.835Z,22.27
2019-05-19T04:31:08.044Z,22.90
2019-05-19T04:33:44.294Z,22.17
2019-05-19T04:36:20.577Z,22.37
2019-05-19T04:38:56.803Z,22.90
2019-05-19T04:41:33.084Z,23.20
2019-05-19T04:44:09.320Z,23.73
2019-05-19T04:46:45.683Z,23.50
2019-05-19T04:49:21.888Z,21.80
2019-05-19T04:52:06.634Z,21.57
2019-05-19T04:54:35.942Z,21.23
2019-05-19T04:57:12.198Z,20.50
2019-05-19T04:59:48.472Z,21.97
2019-05-19T05:02:24.716Z,22.30
2019-05-19T05:05:01.045Z,22.37
2019-05-19T05:07:37.288Z,22.43
2019-05-19T05:10:13.658Z,21.90
2019-05-19T05:12:49.953Z,21.37
2019-05-19T05:15:27.437Z,20.80
2019-05-19T05:18:03.727Z,21.30
2019-05-19T05:20:40.032Z,19.17
2019-05-19T05:23:16.320Z,19.27
2019-05-19T05:25:52.632Z,18.33
2019-05-19T05:28:28.932Z,17.67
2019-05-19T05:31:06.709Z,17.17
2019-05-19T05:33:42.992Z,16.10
2019-05-19T05:36:19.389Z,16.30
2019-05-19T05:38:55.722Z,15.53
2019-05-19T05:41:32.073Z,16.43
2019-05-19T05:44:08.324Z,14.87
2019-05-19T05:46:44.694Z,14.50
2019-05-19T05:49:21.022Z,15.37
2019-05-19T05:51:57.369Z,14.13
2019-05-19T05:54:33.703Z,15.60
2019-05-19T05:57:09.925Z,15.30
2019-05-19T05:59:46.136Z,13.60
2019-05-19T06:02:22.492Z,14.20
2019-05-19T06:04:58.742Z,15.17
2019-05-19T06:07:35.133Z,14.83
2019-05-19T06:10:11.456Z,14.63
2019-05-19T06:12:47.836Z,14.00
2019-05-19T06:15:24.191Z,15.23
2019-05-19T06:18:00.492Z,15.07
2019-05-19T06:20:36.761Z,13.87
2019-05-19T06:23:13.018Z,13.93
2019-05-19T06:25:52.123Z,14.40
2019-05-19T06:28:28.394Z,13.97
2019-05-19T06:31:04.701Z,14.40
2019-05-19T06:33:40.956Z,15.10
2019-05-19T06:36:17.116Z,13.83
2019-05-19T06:38:53.406Z,14.87
2019-05-19T06:41:40.119Z,15.00
2019-05-19T06:44:16.445Z,15.27
2019-05-19T06:47:06.718Z,13.53
2019-05-19T06:50:14.358Z,13.73
2019-05-19T06:53:12.769Z,14.97
2019-05-19T06:55:42.974Z,15.00
2019-05-19T06:58:19.272Z,15.87
2019-05-19T07:00:58.536Z,15.87
2019-05-19T07:03:33.657Z,16.17
2019-05-19T07:06:09.957Z,16.40
2019-05-19T07:08:46.356Z,15.67
2019-05-19T07:11:22.729Z,16.40
2019-05-19T07:14:02.599Z,16.73
2019-05-19T07:16:36.927Z,16.17
2019-05-19T07:19:13.523Z,16.80
2019-05-19T07:21:49.812Z,17.17
2019-05-19T07:24:26.133Z,18.07
2019-05-19T07:27:02.489Z,17.23
2019-05-19T07:29:38.851Z,16.30
2019-05-19T07:32:15.177Z,18.57
2019-05-19T07:34:51.478Z,17.10
2019-05-19T07:37:27.801Z,18.43
2019-05-19T07:40:05.767Z,18.37
2019-05-19T07:42:42.051Z,18.97
2019-05-19T07:45:19.715Z,18.97
2019-05-19T07:47:55.939Z,17.87
2019-05-19T07:50:32.336Z,17.63
2019-05-19T07:53:09.005Z,17.87
2019-05-19T07:55:45.295Z,18.17
2019-05-19T07:58:21.527Z,16.30
2019-05-19T08:00:57.827Z,17.37
2019-05-19T08:03:35.294Z,16.97
2019-05-19T08:06:13.257Z,16.83
2019-05-19T08:08:49.585Z,16.40
2019-05-19T08:11:25.863Z,17.07
2019-05-19T08:14:02.185Z,16.90
2019-05-19T08:16:38.445Z,17.80
2019-05-19T08:19:14.760Z,16.63
2019-05-19T08:21:51.146Z,17.20
2019-05-19T08:24:27.427Z,16.97
2019-05-19T08:27:03.685Z,16.97
2019-05-19T08:29:39.915Z,17.10
2019-05-19T08:32:16.183Z,17.70
2019-05-19T08:34:52.420Z,16.97
2019-05-19T08:37:28.622Z,17.97
2019-05-19T08:40:07.491Z,17.63
2019-05-19T08:42:44.840Z,16.73
2019-05-19T08:45:21.074Z,17.53
2019-05-19T08:47:57.370Z,16.23
2019-05-19T08:50:33.708Z,17.57
2019-05-19T08:53:10.050Z,18.30
2019-05-19T08:55:48.348Z,17.47
2019-05-19T08:58:26.361Z,18.87
2019-05-19T09:01:02.678Z,17.97
2019-05-19T09:03:38.949Z,18.87
2019-05-19T09:06:15.217Z,18.60
2019-05-19T09:08:51.474Z,18.87
2019-05-19T09:11:27.786Z,18.17
2019-05-19T09:14:04.023Z,19.10
2019-05-19T09:16:40.339Z,18.40
2019-05-19T09:19:18.006Z,18.10
2019-05-19T09:21:54.186Z,19.27
2019-05-19T09:24:31.206Z,18.33
2019-05-19T09:27:07.513Z,18.10
2019-05-19T09:29:43.818Z,18.63
2019-05-19T09:32:20.038Z,18.37
2019-05-19T09:34:56.352Z,17.20
2019-05-19T09:37:32.615Z,17.70
2019-05-19T09:40:09.643Z,20.40
2019-05-19T09:42:45.910Z,18.37
2019-05-19T09:45:22.207Z,18.90
2019-05-19T09:47:59.105Z,19.27
2019-05-19T09:50:44.654Z,17.43
2019-05-19T09:53:20.970Z,17.20
2019-05-19T09:55:57.270Z,17.27
2019-05-19T09:58:33.603Z,16.60
2019-05-19T10:01:09.860Z,16.37
2019-05-19T10:03:46.124Z,16.70
2019-05-19T10:06:22.456Z,15.90
2019-05-19T10:09:00.349Z,14.37
2019-05-19T10:11:58.306Z,14.80
2019-05-19T10:14:40.560Z,16.93
2019-05-19T10:17:16.856Z,15.30
2019-05-19T10:19:53.156Z,15.60
2019-05-19T10:22:29.517Z,12.90
2019-05-19T10:25:20.831Z,14.67
2019-05-19T10:27:46.092Z,12.83
2019-05-19T10:30:22.647Z,12.20
2019-05-19T10:33:00.371Z,11.57
2019-05-19T10:35:36.964Z,13.33
2019-05-19T10:38:13.263Z,13.97
2019-05-19T10:40:49.498Z,12.50
2019-05-19T10:43:25.858Z,12.00
2019-05-19T10:46:02.168Z,13.47
2019-05-19T10:48:38.361Z,13.87
2019-05-19T10:51:14.616Z,13.53
2019-05-19T10:53:50.881Z,12.70
2019-05-19T10:56:27.038Z,12.73
2019-05-19T10:59:03.550Z,12.43
2019-05-19T11:01:39.865Z,11.53
2019-05-19T11:04:16.206Z,12.80
2019-05-19T11:06:52.506Z,13.80
2019-05-19T11:09:29.051Z,14.70
2019-05-19T11:12:05.277Z,13.13
2019-05-19T11:14:41.561Z,13.63
2019-05-19T11:17:17.784Z,13.40
2019-05-19T11:19:54.834Z,14.47
2019-05-19T11:22:31.073Z,14.33
2019-05-19T11:25:07.434Z,13.87
2019-05-19T11:27:43.944Z,13.10
2019-05-19T11:30:20.293Z,12.93
2019-05-19T11:32:56.469Z,13.57
2019-05-19T11:35:32.754Z,13.77
2019-05-19T11:38:09.042Z,14.23
2019-05-19T11:40:45.417Z,13.40
2019-05-19T11:43:21.645Z,12.77
2019-05-19T11:45:58.741Z,13.87
2019-05-19T11:48:35.013Z,11.90
2019-05-19T11:51:11.293Z,13.30
2019-05-19T11:53:48.243Z,14.43
2019-05-19T11:56:25.154Z,13.40
2019-05-19T11:59:03.567Z,13.53
2019-05-19T12:01:39.951Z,13.77
2019-05-19T12:04:16.496Z,13.73
2019-05-19T12:06:53.170Z,13.30
2019-05-19T12:09:29.587Z,13.90
2019-05-19T12:12:16.695Z,13.80
2019-05-19T12:14:50.842Z,13.23
2019-05-19T12:17:27.080Z,13.73
2019-05-19T12:20:03.512Z,13.10
2019-05-19T12:22:39.869Z,11.83
2019-05-19T12:25:16.095Z,12.87
2019-05-19T12:27:52.339Z,11.27
2019-05-19T12:30:28.739Z,12.80
2019-05-19T12:33:06.734Z,12.27
2019-05-19T12:35:43.054Z,11.40
2019-05-19T12:38:19.288Z,11.60
2019-05-19T12:40:55.630Z,12.83
2019-05-19T12:43:31.882Z,13.90
2019-05-19T12:46:16.120Z,13.80
2019-05-19T12:48:45.968Z,13.13
2019-05-19T12:51:22.234Z,12.20
2019-05-19T12:53:58.550Z,12.97
2019-05-19T12:56:39.756Z,12.83
2019-05-19T12:59:13.153Z,12.83
2019-05-19T13:01:53.689Z,12.07
2019-05-19T13:04:30.104Z,12.27
2019-05-19T13:07:06.643Z,13.27
2019-05-19T13:09:43.054Z,12.47
2019-05-19T13:12:22.404Z,13.37
2019-05-19T13:14:59.797Z,13.33
2019-05-19T13:17:40.892Z,12.50
2019-05-19T13:20:25.110Z,12.30
2019-05-19T13:23:04.149Z,11.57
2019-05-19T13:25:40.442Z,13.63
2019-05-19T13:28:16.908Z,13.00
2019-05-19T13:30:53.137Z,12.07
2019-05-19T13:33:29.492Z,11.77
2019-05-19T13:36:05.719Z,13.00
2019-05-19T13:38:42.343Z,13.00
2019-05-19T13:41:18.555Z,12.53
2019-05-19T13:43:54.887Z,13.13
2019-05-19T13:46:31.120Z,12.50
2019-05-19T13:49:07.394Z,11.50
2019-05-19T13:51:43.625Z,9.90
2019-05-19T13:54:19.820Z,10.80
2019-05-19T13:57:09.972Z,10.60
2019-05-19T13:59:33.857Z,10.87
2019-05-19T14:02:10.132Z,9.93
2019-05-19T14:04:46.983Z,10.83
2019-05-19T14:07:23.269Z,11.13
2019-05-19T14:09:59.825Z,10.57
2019-05-19T14:12:36.246Z,10.97
2019-05-19T14:15:12.886Z,10.50
2019-05-19T14:17:49.062Z,9.50
2019-05-19T14:20:25.213Z,11.07
2019-05-19T14:23:01.474Z,10.00
2019-05-19T14:25:37.697Z,9.77
2019-05-19T14:28:13.966Z,9.50
2019-05-19T14:30:50.244Z,9.67
2019-05-19T14:33:28.348Z,10.73
2019-05-19T14:36:04.373Z,8.97
2019-05-19T14:38:42.283Z,9.30
2019-05-19T14:41:31.601Z,8.90
2019-05-19T14:43:56.523Z,9.93
2019-05-19T14:46:32.769Z,8.93
2019-05-19T14:49:09.058Z,9.57
2019-05-19T14:51:45.332Z,9.40
2019-05-19T14:54:21.604Z,9.17
2019-05-19T14:56:57.750Z,8.17
2019-05-19T14:59:34.054Z,8.47
2019-05-19T15:02:10.344Z,8.20
2019-05-19T15:04:46.673Z,8.17
2019-05-19T15:07:22.891Z,9.07
2019-05-19T15:09:59.173Z,8.73
2019-05-19T15:12:35.332Z,10.10
2019-05-19T15:15:11.944Z,11.67
2019-05-19T15:17:48.198Z,11.10
2019-05-19T15:20:24.620Z,11.20
2019-05-19T15:23:01.005Z,10.40
2019-05-19T15:25:37.274Z,10.17
2019-05-19T15:28:13.592Z,10.93
2019-05-19T15:30:49.845Z,11.20
2019-05-19T15:33:26.173Z,11.93
2019-05-19T15:36:02.550Z,12.23
2019-05-19T15:38:38.831Z,12.07
2019-05-19T15:41:15.018Z,10.10
2019-05-19T15:43:51.363Z,12.47
2019-05-19T15:46:27.538Z,13.07
2019-05-19T15:49:14.185Z,12.67
2019-05-19T15:52:03.009Z,12.63
2019-05-19T15:54:40.849Z,10.67
2019-05-19T15:57:17.205Z,10.63
2019-05-19T15:59:53.627Z,9.57
2019-05-19T16:02:39.385Z,8.50
2019-05-19T16:05:19.296Z,9.33
2019-05-19T16:07:55.525Z,8.60
2019-05-19T16:10:31.815Z,9.03
2019-05-19T16:13:08.122Z,10.37
2019-05-19T16:15:44.429Z,10.03
2019-05-19T16:18:20.773Z,10.53
2019-05-19T16:20:58.934Z,12.33
2019-05-19T16:23:48.548Z,13.77
2019-05-19T16:26:22.606Z,14.87
2019-05-19T16:35:34.574Z,11.77
2019-05-19T16:38:10.845Z,10.33
2019-05-19T16:40:47.136Z,10.00
2019-05-19T16:43:23.351Z,10.47
2019-05-19T16:45:59.579Z,9.37
2019-05-19T16:48:35.977Z,10.27
2019-05-19T16:51:12.309Z,9.43
2019-05-19T16:53:50.368Z,9.10
2019-05-19T16:56:26.722Z,10.37
2019-05-19T16:59:03.103Z,9.30
2019-05-19T17:01:39.312Z,10.00
2019-05-19T17:04:15.632Z,10.53
2019-05-19T17:06:51.934Z,9.00
2019-05-19T17:09:28.205Z,9.50
2019-05-19T17:12:06.817Z,9.70
2019-05-19T17:14:42.438Z,10.17
2019-05-19T17:17:18.647Z,10.17
2019-05-19T17:19:55.274Z,10.77
2019-05-19T17:22:31.504Z,11.27
2019-05-19T17:25:08.002Z,10.70
2019-05-19T17:27:44.503Z,10.70
2019-05-19T17:30:22.453Z,11.03
2019-05-19T17:32:59.098Z,10.53
2019-05-19T17:35:35.477Z,11.60
2019-05-19T17:38:12.077Z,10.70
2019-05-19T17:40:48.477Z,10.50
2019-05-19T17:43:24.735Z,11.63
2019-05-19T17:46:01.050Z,11.27
2019-05-19T17:48:37.285Z,10.80
2019-05-19T17:51:13.631Z,10.57
2019-05-19T17:53:49.952Z,10.80
2019-05-19T17:56:27.275Z,11.47
2019-05-19T17:59:15.817Z,11.93
2019-05-19T18:01:41.589Z,11.23
2019-05-19T18:04:17.869Z,10.97
2019-05-19T18:06:54.106Z,11.37
2019-05-19T18:09:30.494Z,12.00
2019-05-19T18:12:07.438Z,12.10
2019-05-19T18:14:43.637Z,11.27
2019-05-19T18:17:19.968Z,11.40
2019-05-19T18:19:56.227Z,11.90
2019-05-19T18:22:32.512Z,12.50
2019-05-19T18:25:08.791Z,12.70
2019-05-19T18:27:45.084Z,16.47
2019-05-19T18:30:24.301Z,12.50
2019-05-19T18:33:00.607Z,12.73
2019-05-19T18:35:36.922Z,13.43
2019-05-19T18:38:13.234Z,14.37
2019-05-19T18:40:49.507Z,13.80
2019-05-19T18:43:25.807Z,15.03
2019-05-19T18:46:02.121Z,13.97
2019-05-19T18:48:38.480Z,13.80
2019-05-19T18:51:14.848Z,11.83
2019-05-19T18:53:51.239Z,12.73
2019-05-19T18:56:27.667Z,13.57
2019-05-19T18:59:04.116Z,13.70
2019-05-19T19:01:40.311Z,14.73
2019-05-19T19:04:16.650Z,14.20
2019-05-19T19:06:52.937Z,14.17
2019-05-19T19:09:29.495Z,13.30
2019-05-19T19:12:05.815Z,14.73
2019-05-19T19:14:42.039Z,13.50
2019-05-19T19:17:18.287Z,14.43
2019-05-19T19:19:54.531Z,14.30
2019-05-19T19:22:32.194Z,14.60
2019-05-19T19:25:14.323Z,14.93
2019-05-19T19:27:50.019Z,15.70
2019-05-19T19:30:29.546Z,14.73
2019-05-19T19:33:08.001Z,14.30
2019-05-19T19:35:45.859Z,14.87
2019-05-19T19:38:25.016Z,16.13
2019-05-19T19:41:03.652Z,14.77
2019-05-19T19:43:45.514Z,16.33
2019-05-19T19:46:30.106Z,15.00
2019-05-19T19:52:16.322Z,16.07
2019-05-19T19:54:55.503Z,14.80
2019-05-19T19:57:32.014Z,16.03
2019-05-19T20:00:18.346Z,15.57
2019-05-19T20:02:53.438Z,14.80
2019-05-19T20:05:33.249Z,14.03
2019-05-19T20:08:13.069Z,13.63
2019-05-19T20:10:53.156Z,14.03
2019-05-19T20:13:29.109Z,14.33
2019-05-19T20:16:18.503Z,13.93
2019-05-19T20:18:55.820Z,12.70
2019-05-19T20:21:32.436Z,12.80
2019-05-19T20:24:08.777Z,14.13
2019-05-19T20:26:49.994Z,12.47
2019-05-19T20:29:23.624Z,13.53
2019-05-19T20:32:00.003Z,13.30
2019-05-19T20:34:36.445Z,13.80
2019-05-19T20:37:15.509Z,13.93
2019-05-19T20:39:51.473Z,15.17
2019-05-19T20:42:35.052Z,14.23
2019-05-19T20:45:15.742Z,13.83
2019-05-19T20:47:53.684Z,14.00
2019-05-19T20:50:40.568Z,13.30
2019-05-19T20:53:19.839Z,12.40
2019-05-19T20:56:03.476Z,13.00
2019-05-19T20:58:43.375Z,12.33
2019-05-19T21:01:19.797Z,13.73
2019-05-19T21:04:02.282Z,14.07
2019-05-19T21:06:43.491Z,12.83
2019-05-19T21:09:23.498Z,12.97
2019-05-19T21:12:04.268Z,11.17
2019-05-19T21:14:43.787Z,11.87
2019-05-19T21:17:21.768Z,12.33
2019-05-19T21:19:58.043Z,12.30
2019-05-19T21:22:45.770Z,12.27
2019-05-19T21:25:32.841Z,12.00
2019-05-19T21:28:11.853Z,12.03
2019-05-19T21:31:04.865Z,12.27
2019-05-19T21:33:30.305Z,12.87
2019-05-19T21:36:11.086Z,12.63
2019-05-19T21:38:53.413Z,12.77
2019-05-19T21:41:30.219Z,12.50
2019-05-19T21:44:08.012Z,13.53
2019-05-19T21:46:46.345Z,14.73
2019-05-19T21:49:24.695Z,14.10
2019-05-19T21:52:09.236Z,14.10
2019-05-19T21:54:45.821Z,13.10
2019-05-19T21:57:25.075Z,13.47
2019-05-19T22:00:06.573Z,13.00
2019-05-19T22:02:47.178Z,13.80
2019-05-19T22:05:24.189Z,13.43
2019-05-19T22:08:07.915Z,12.90
2019-05-19T22:10:44.124Z,13.43
2019-05-19T22:13:20.333Z,13.17
2019-05-19T22:16:11.596Z,14.03
2019-05-19T22:18:34.616Z,13.90
2019-05-19T22:21:10.973Z,13.50
2019-05-19T22:23:50.267Z,13.77
2019-05-19T22:26:26.588Z,13.03
2019-05-19T22:29:02.795Z,13.10
2019-05-19T22:31:38.985Z,14.83
2019-05-19T22:34:15.155Z,15.63
2019-05-19T22:36:51.416Z,14.93
2019-05-19T22:39:27.566Z,14.10
2019-05-19T22:42:03.772Z,14.90
2019-05-19T22:44:40.022Z,14.67
2019-05-19T22:47:16.259Z,14.63
2019-05-19T22:49:52.573Z,15.43
2019-05-19T22:52:28.780Z,15.23
2019-05-19T22:55:06.511Z,14.53
2019-05-19T22:57:42.771Z,16.00
2019-05-19T23:00:19.855Z,15.47
2019-05-19T23:02:56.162Z,15.07
2019-05-19T23:05:32.331Z,14.30
2019-05-19T23:08:08.601Z,15.70
2019-05-19T23:10:44.819Z,15.17
2019-05-19T23:13:21.263Z,15.53
2019-05-19T23:15:57.486Z,13.63
2019-05-19T23:18:33.916Z,14.87
2019-05-19T23:21:10.147Z,15.00
2019-05-19T23:23:46.471Z,14.60
2019-05-19T23:26:22.751Z,15.83
2019-05-19T23:28:58.904Z,15.03
2019-05-19T23:31:35.118Z,15.03
2019-05-19T23:34:11.343Z,14.03
2019-05-19T23:36:47.811Z,14.60
2019-05-19T23:39:24.116Z,14.70
2019-05-19T23:42:00.365Z,14.57
2019-05-19T23:44:36.672Z,14.57
2019-05-19T23:47:13.031Z,14.83
2019-05-19T23:49:49.238Z,14.67
2019-05-19T23:52:25.604Z,14.60
2019-05-19T23:55:01.807Z,13.93
2019-05-19T23:57:38.082Z,14.27
